Terminal Aerodrome Forecast
Issued by NWS

Home | Current Version | Previous Version | Text Only | Print | Product List | Glossary On
Versions: 1 2 3 4 5 6 7 8 9 10 11 12 13 14 15 16 17
338
FTUS46 KSEW 281939 AAA
TAFOLM
TAF AMD
KOLM 281939Z 2820/2918 30005KT P6SM SCT035 SCT100 BKN200
     FM290100 36005KT P6SM SCT035 SCT100
     FM290300 VRB03KT P6SM SCT030
      TEMPO 2912/2916 4SM BR SCT005 SCT030=

USA.gov is the U.S. government's official web portal to all federal, state and local government web resources and services.